Terminal Aerodrome Forecast
Issued by NWS Bismarck, ND

Home | Current Version | Previous Version | Graphics & Text | Print | Product List | Glossary On
Versions: 1 2 3 4 5 6 7 8 9 10 11 12 13 14 15 16 17 18 19 20
000
FTUS43 KBIS 041342 AAA
TAFBIS
TAF AMD
KBIS 041342Z 0414/0512 12008KT 2SM FU SKC
     FM041600 16010KT 5SM FU SKC
     FM041700 17012KT P6SM SKC
     FM050000 18015KT P6SM SCT060
     FM050300 18009KT P6SM SCT050 SCT100
     FM050900 36012KT P6SM BKN035 OVC050=

USA.gov is the U.S. government's official web portal to all federal, state and local government web resources and services.